Time;durP1;ratioP1;P1;durP2;ratioP2;P2;SDS_P1;SDS_P2;PMS_P1;PMS_P2;Temp;Humidity;BMP_temperature;BMP_pressure;BME280_temperature;BME280_humidity;BME280_pressure;Samples;Min_cycle;Max_cycle;Signal;HPM_P1;HPM_P2
2024/02/23 00:26:51;;;;;;;3.10;1.00;;;;;;;;;;103552;1295;547838;-73
2024/02/23 00:30:08;;;;;;;1.80;0.80;;;;;;;;;;103786;1289;545333;-71
2024/02/23 00:33:44;;;;;;;3.50;0.80;;;;;;;;;;103565;1291;544934;-72
2024/02/23 00:37:22;;;;;;;2.70;1.10;;;;;;;;;;103751;1301;544749;-74
2024/02/23 00:40:56;;;;;;;2.40;1.00;;;;;;;;;;103844;1288;545008;-71
2024/02/23 00:44:33;;;;;;;2.20;1.00;;;;;;;;;;103783;1289;544986;-71
2024/02/23 00:48:14;;;;;;;1.80;0.90;;;;;;;;;;103776;1289;544836;-73
2024/02/23 00:51:52;;;;;;;2.10;1.00;;;;;;;;;;103760;1292;544964;-73
2024/02/23 00:55:29;;;;;;;2.00;0.80;;;;;;;;;;103582;1291;545075;-72
2024/02/23 00:59:07;;;;;;;1.80;0.90;;;;;;;;;;104017;1289;545089;-72
2024/02/23 01:02:44;;;;;;;2.80;0.90;;;;;;;;;;104623;1283;544778;-72
2024/02/23 01:06:22;;;;;;;1.90;1.00;;;;;;;;;;103779;1302;544792;-70
2024/02/23 01:09:59;;;;;;;2.60;0.80;;;;;;;;;;103713;1295;545023;-72
2024/02/23 01:13:37;;;;;;;2.50;1.10;;;;;;;;;;103952;1289;544914;-74
2024/02/23 01:17:15;;;;;;;4.20;1.40;;;;;;;;;;103682;1289;544997;-73
2024/02/23 01:20:48;;;;;;;3.10;1.20;;;;;;;;;;103631;1289;544836;-71
2024/02/23 01:24:27;;;;;;;3.40;1.30;;;;;;;;;;103706;1288;545169;-71
2024/02/23 01:28:07;;;;;;;5.10;1.70;;;;;;;;;;103507;1291;544994;-71
2024/02/23 01:31:44;;;;;;;4.70;1.30;;;;;;;;;;103551;1291;545598;-73
2024/02/23 01:35:21;;;;;;;4.00;1.60;;;;;;;;;;103902;1289;545665;-73
2024/02/23 01:38:55;;;;;;;6.60;1.90;;;;;;;;;;103703;1291;545034;-71
2024/02/23 01:42:37;;;;;;;3.70;1.60;;;;;;;;;;103789;1291;545529;-73
2024/02/23 01:46:16;;;;;;;5.00;1.80;;;;;;;;;;103589;1292;544746;-72
2024/02/23 01:49:52;;;;;;;5.80;2.20;;;;;;;;;;103654;1289;544851;-73
2024/02/23 01:53:29;;;;;;;5.70;2.40;;;;;;;;;;103681;1295;545022;-71
2024/02/23 01:57:03;;;;;;;6.60;2.70;;;;;;;;;;103904;1292;544930;-72
2024/02/23 02:00:44;;;;;;;8.10;3.00;;;;;;;;;;103846;1289;544760;-72
2024/02/23 02:04:22;;;;;;;6.30;2.60;;;;;;;;;;103758;1292;544971;-71
2024/02/23 02:07:58;;;;;;;5.40;2.30;;;;;;;;;;103760;1292;545306;-70
2024/02/23 02:11:44;;;;;;;5.40;2.40;;;;;;;;;;103561;1294;544998;-73
2024/02/23 02:15:14;;;;;;;5.90;2.90;;;;;;;;;;103764;1291;545029;-73
2024/02/23 02:18:52;;;;;;;6.80;2.60;;;;;;;;;;103828;1292;544786;-72
2024/02/23 02:22:29;;;;;;;6.70;3.00;;;;;;;;;;103706;1290;544817;-73
2024/02/23 02:26:07;;;;;;;6.10;2.70;;;;;;;;;;104135;1285;544934;-71
2024/02/23 02:29:44;;;;;;;6.60;3.20;;;;;;;;;;103857;1290;545192;-73
2024/02/23 02:33:22;;;;;;;5.30;2.70;;;;;;;;;;103839;1292;545184;-71
2024/02/23 02:37:00;;;;;;;5.70;2.70;;;;;;;;;;103799;1289;544915;-70
2024/02/23 02:40:37;;;;;;;7.20;2.90;;;;;;;;;;103733;1290;545543;-74
2024/02/23 02:44:14;;;;;;;5.80;2.60;;;;;;;;;;103780;1289;544722;-74
2024/02/23 02:47:51;;;;;;;6.00;2.80;;;;;;;;;;103735;1290;544846;-73
2024/02/23 02:51:28;;;;;;;7.70;3.40;;;;;;;;;;103724;1289;545729;-74
2024/02/23 02:55:06;;;;;;;6.40;3.30;;;;;;;;;;103736;1289;544993;-72
2024/02/23 02:58:43;;;;;;;6.20;3.00;;;;;;;;;;103615;1294;545505;-74
2024/02/23 03:02:21;;;;;;;6.10;3.00;;;;;;;;;;103694;1289;544948;-74
2024/02/23 03:05:58;;;;;;;5.20;2.70;;;;;;;;;;103910;1288;544681;-72
2024/02/23 03:09:35;;;;;;;5.80;2.90;;;;;;;;;;103767;1289;544809;-73
2024/02/23 03:13:13;;;;;;;6.00;2.90;;;;;;;;;;104038;1286;544599;-73
2024/02/23 03:16:51;;;;;;;6.30;3.20;;;;;;;;;;104361;1283;544892;-74
2024/02/23 03:20:28;;;;;;;9.80;3.20;;;;;;;;;;103677;1295;545612;-73
2024/02/23 03:24:05;;;;;;;6.10;2.90;;;;;;;;;;103808;1289;545227;-72
2024/02/23 03:27:42;;;;;;;5.70;2.90;;;;;;;;;;103816;1296;544755;-75
2024/02/23 03:31:21;;;;;;;6.60;2.90;;;;;;;;;;103624;1289;544854;-74
2024/02/23 03:34:57;;;;;;;6.40;3.60;;;;;;;;;;104164;1286;544927;-74
2024/02/23 03:38:41;;;;;;;6.40;3.60;;;;;;;;;;103510;1292;547805;-74
2024/02/23 03:42:13;;;;;;;6.80;3.30;;;;;;;;;;103707;1292;545539;-74
2024/02/23 03:45:50;;;;;;;6.30;3.40;;;;;;;;;;103736;1292;544930;-75
2024/02/23 03:49:27;;;;;;;6.90;3.70;;;;;;;;;;103792;1292;545032;-73
2024/02/23 03:53:05;;;;;;;7.60;4.10;;;;;;;;;;103866;1288;545164;-74
2024/02/23 03:56:43;;;;;;;7.30;4.10;;;;;;;;;;103685;1295;544779;-74
2024/02/23 04:00:22;;;;;;;6.60;3.90;;;;;;;;;;103656;1291;544746;-73
2024/02/23 04:03:58;;;;;;;7.30;3.90;;;;;;;;;;103812;1289;544748;-74
2024/02/23 04:07:54;;;;;;;7.80;4.20;;;;;;;;;;103747;1292;548233;-74
2024/02/23 04:11:14;;;;;;;7.40;3.90;;;;;;;;;;103789;1294;544931;-75
2024/02/23 04:14:50;;;;;;;8.20;3.70;;;;;;;;;;103834;1292;545589;-75
2024/02/23 04:18:27;;;;;;;8.00;3.70;;;;;;;;;;103755;1291;545903;-70
2024/02/23 04:22:06;;;;;;;9.20;4.60;;;;;;;;;;103737;1290;544773;-72
2024/02/23 04:25:42;;;;;;;9.30;4.30;;;;;;;;;;103808;1289;545178;-73
2024/02/23 04:29:20;;;;;;;9.00;4.30;;;;;;;;;;103962;1288;544978;-72
2024/02/23 04:32:57;;;;;;;7.90;3.80;;;;;;;;;;103788;1301;544974;-74
2024/02/23 04:36:35;;;;;;;8.80;3.90;;;;;;;;;;103798;1294;544974;-72
2024/02/23 04:40:12;;;;;;;7.50;3.50;;;;;;;;;;103787;1289;544958;-70
2024/02/23 04:43:50;;;;;;;7.40;3.40;;;;;;;;;;103721;1292;544966;-72
2024/02/23 04:47:27;;;;;;;6.00;2.90;;;;;;;;;;103806;1296;545657;-75
2024/02/23 04:51:07;;;;;;;5.40;2.30;;;;;;;;;;103750;1289;545055;-73
2024/02/23 04:54:42;;;;;;;6.80;2.60;;;;;;;;;;103754;1289;544923;-73
2024/02/23 04:58:20;;;;;;;5.00;2.50;;;;;;;;;;103704;1291;545467;-75
2024/02/23 05:01:57;;;;;;;7.20;3.30;;;;;;;;;;103722;1291;544711;-73
2024/02/23 05:05:35;;;;;;;5.30;2.70;;;;;;;;;;103639;1294;545658;-75
2024/02/23 05:09:12;;;;;;;5.20;2.40;;;;;;;;;;103816;1289;544949;-71
2024/02/23 05:13:10;;;;;;;5.60;2.50;;;;;;;;;;103670;1294;548086;-74
2024/02/23 05:16:28;;;;;;;5.40;2.30;;;;;;;;;;103700;1292;544940;-74
2024/02/23 05:20:10;;;;;;;6.60;2.60;;;;;;;;;;103742;1289;545601;-73
2024/02/23 05:23:41;;;;;;;6.30;2.50;;;;;;;;;;103584;1295;545772;-72
2024/02/23 05:27:20;;;;;;;5.20;2.20;;;;;;;;;;103817;1295;544992;-74
2024/02/23 05:30:57;;;;;;;6.60;2.60;;;;;;;;;;103778;1289;544856;-74
2024/02/23 05:34:35;;;;;;;5.50;2.50;;;;;;;;;;103581;1291;545889;-75
2024/02/23 05:38:12;;;;;;;5.80;2.30;;;;;;;;;;103794;1289;545214;-75
2024/02/23 05:41:50;;;;;;;5.20;2.00;;;;;;;;;;103717;1291;544992;-74
2024/02/23 05:45:23;;;;;;;3.70;2.00;;;;;;;;;;104149;1289;544982;-73
2024/02/23 05:49:05;;;;;;;5.70;2.10;;;;;;;;;;103713;1290;544851;-74
2024/02/23 05:52:42;;;;;;;6.20;2.50;;;;;;;;;;103891;1289;544767;-75
2024/02/23 05:56:20;;;;;;;6.60;2.20;;;;;;;;;;103611;1295;545093;-73
2024/02/23 05:59:56;;;;;;;6.50;2.10;;;;;;;;;;103816;1289;545353;-73
2024/02/23 06:03:34;;;;;;;5.00;1.90;;;;;;;;;;103614;1291;545047;-73
2024/02/23 06:07:12;;;;;;;4.80;2.10;;;;;;;;;;104303;1289;544932;-74
2024/02/23 06:10:49;;;;;;;5.60;2.20;;;;;;;;;;103756;1292;544739;-74
2024/02/23 06:14:27;;;;;;;5.90;2.20;;;;;;;;;;103709;1291;545553;-72
2024/02/23 06:18:05;;;;;;;6.10;2.20;;;;;;;;;;103643;1291;544852;-74
2024/02/23 06:21:42;;;;;;;5.90;2.00;;;;;;;;;;103641;1291;544814;-75
2024/02/23 06:25:19;;;;;;;6.70;2.00;;;;;;;;;;103723;1291;545425;-75
2024/02/23 06:28:57;;;;;;;6.10;2.30;;;;;;;;;;103649;1292;544883;-75
2024/02/23 06:32:34;;;;;;;5.50;2.00;;;;;;;;;;103833;1290;545689;-75
2024/02/23 06:36:11;;;;;;;6.50;2.10;;;;;;;;;;103704;1295;545380;-74
2024/02/23 06:39:49;;;;;;;8.00;3.10;;;;;;;;;;103833;1288;545787;-75
2024/02/23 06:43:26;;;;;;;10.80;4.90;;;;;;;;;;103939;1289;545120;-74
2024/02/23 06:47:04;;;;;;;14.30;5.90;;;;;;;;;;103867;1292;546189;-74
2024/02/23 06:50:41;;;;;;;10.50;4.30;;;;;;;;;;104035;1289;545024;-75
2024/02/23 06:54:19;;;;;;;10.50;4.40;;;;;;;;;;103847;1289;545795;-75
2024/02/23 06:57:56;;;;;;;10.10;3.60;;;;;;;;;;103712;1295;544966;-75
2024/02/23 07:01:35;;;;;;;10.90;3.20;;;;;;;;;;104131;1286;544993;-74
2024/02/23 07:05:11;;;;;;;9.10;2.80;;;;;;;;;;103661;1291;544945;-75
2024/02/23 07:08:48;;;;;;;8.50;2.80;;;;;;;;;;103690;1292;544958;-74
2024/02/23 07:12:28;;;;;;;10.80;3.50;;;;;;;;;;103601;1292;545633;-74
2024/02/23 07:16:03;;;;;;;11.80;3.90;;;;;;;;;;103809;1292;544966;-74
2024/02/23 07:19:41;;;;;;;12.30;3.50;;;;;;;;;;103785;1291;544946;-75
2024/02/23 07:23:18;;;;;;;16.40;4.30;;;;;;;;;;103862;1291;544972;-74
2024/02/23 07:26:56;;;;;;;11.90;3.70;;;;;;;;;;103246;1291;545053;-74
2024/02/23 07:30:29;;;;;;;9.50;2.90;;;;;;;;;;103799;1288;545060;-74
2024/02/23 07:34:11;;;;;;;7.70;2.00;;;;;;;;;;103722;1291;544817;-75
2024/02/23 07:37:44;;;;;;;12.30;3.80;;;;;;;;;;103852;1294;544849;-73
2024/02/23 07:41:26;;;;;;;11.60;4.20;;;;;;;;;;103476;1290;545457;-75
2024/02/23 07:45:04;;;;;;;11.60;4.80;;;;;;;;;;103586;1291;544863;-75
2024/02/23 07:48:40;;;;;;;14.20;4.30;;;;;;;;;;103543;1293;544942;-73
2024/02/23 07:52:16;;;;;;;12.50;4.70;;;;;;;;;;103755;1292;544757;-72
2024/02/23 07:55:55;;;;;;;9.80;3.30;;;;;;;;;;103785;1290;545028;-73
2024/02/23 07:59:33;;;;;;;13.00;4.20;;;;;;;;;;104077;1289;545470;-75
2024/02/23 08:03:08;;;;;;;10.60;3.80;;;;;;;;;;103796;1288;545955;-73
2024/02/23 08:06:48;;;;;;;11.30;3.40;;;;;;;;;;103736;1292;544817;-75
2024/02/23 08:10:21;;;;;;;9.20;2.80;;;;;;;;;;103892;1289;545365;-73
2024/02/23 08:14:03;;;;;;;5.20;1.20;;;;;;;;;;103551;1295;544919;-75
2024/02/23 08:17:59;;;;;;;6.00;1.20;;;;;;;;;;103657;1295;547974;-74
2024/02/23 08:21:18;;;;;;;6.60;1.20;;;;;;;;;;103695;1292;545346;-74
2024/02/23 08:24:55;;;;;;;3.50;0.80;;;;;;;;;;103790;1292;544838;-74
2024/02/23 08:28:32;;;;;;;4.70;0.80;;;;;;;;;;103771;1295;545008;-73
2024/02/23 08:32:10;;;;;;;4.40;0.80;;;;;;;;;;104117;1291;546054;-73
2024/02/23 08:35:44;;;;;;;3.40;1.00;;;;;;;;;;103984;1289;544894;-73
2024/02/23 08:39:25;;;;;;;4.60;1.10;;;;;;;;;;103806;1292;544993;-72
2024/02/23 08:43:03;;;;;;;3.80;1.10;;;;;;;;;;103445;1294;544886;-73
2024/02/23 08:46:40;;;;;;;5.30;1.30;;;;;;;;;;103708;1295;545581;-75
2024/02/23 08:50:18;;;;;;;6.70;1.20;;;;;;;;;;103715;1291;545448;-75
2024/02/23 08:53:57;;;;;;;3.00;0.90;;;;;;;;;;104447;1283;545821;-73
2024/02/23 08:57:33;;;;;;;3.70;0.90;;;;;;;;;;103755;1291;545035;-73
2024/02/23 09:01:10;;;;;;;3.70;0.90;;;;;;;;;;103737;1294;544721;-73
2024/02/23 09:04:47;;;;;;;4.70;1.00;;;;;;;;;;103792;1291;545032;-73
2024/02/23 09:08:24;;;;;;;3.20;0.80;;;;;;;;;;103969;1289;545417;-73
2024/02/23 09:11:59;;;;;;;3.30;0.80;;;;;;;;;;103846;1301;545335;-71
2024/02/23 09:15:35;;;;;;;4.10;0.80;;;;;;;;;;103999;1290;544951;-73
2024/02/23 09:19:13;;;;;;;3.10;1.00;;;;;;;;;;103793;1292;545301;-73
2024/02/23 09:22:55;;;;;;;3.50;1.00;;;;;;;;;;103775;1294;545801;-74
2024/02/23 09:26:32;;;;;;;4.00;0.90;;;;;;;;;;103663;1292;545547;-73
2024/02/23 09:30:11;;;;;;;3.90;1.10;;;;;;;;;;103937;1289;545017;-75
2024/02/23 09:33:43;;;;;;;4.40;1.20;;;;;;;;;;104249;1286;545221;-71
2024/02/23 09:37:24;;;;;;;6.00;1.20;;;;;;;;;;103824;1291;545271;-76
2024/02/23 09:41:03;;;;;;;5.40;1.50;;;;;;;;;;103760;1292;545737;-74
2024/02/23 09:44:41;;;;;;;5.10;1.50;;;;;;;;;;103602;1294;544772;-73
2024/02/23 09:48:18;;;;;;;4.30;1.30;;;;;;;;;;103601;1294;545264;-74
2024/02/23 09:51:54;;;;;;;7.30;1.60;;;;;;;;;;103688;1291;547403;-73
2024/02/23 09:55:32;;;;;;;3.80;1.30;;;;;;;;;;103742;1292;544745;-74
2024/02/23 09:59:05;;;;;;;4.00;1.20;;;;;;;;;;103839;1288;545041;-72
2024/02/23 10:02:48;;;;;;;4.00;1.10;;;;;;;;;;103791;1292;545000;-73
2024/02/23 10:06:24;;;;;;;5.90;1.40;;;;;;;;;;103702;1291;544750;-73
2024/02/23 10:10:02;;;;;;;5.80;1.10;;;;;;;;;;103709;1292;545963;-73
2024/02/23 10:13:41;;;;;;;5.30;1.30;;;;;;;;;;103708;1292;544719;-75
2024/02/23 10:17:13;;;;;;;5.10;1.20;;;;;;;;;;103820;1292;545174;-73
2024/02/23 10:20:56;;;;;;;5.70;1.00;;;;;;;;;;103827;1292;545929;-76
2024/02/23 10:24:31;;;;;;;12.00;4.10;;;;;;;;;;103703;1295;544777;-74
2024/02/23 10:28:10;;;;;;;9.20;2.90;;;;;;;;;;103692;1292;544971;-74
2024/02/23 10:31:49;;;;;;;5.90;2.20;;;;;;;;;;103769;1292;545435;-76
2024/02/23 10:35:24;;;;;;;7.40;2.50;;;;;;;;;;103562;1294;545298;-77
2024/02/23 10:39:03;;;;;;;8.50;3.10;;;;;;;;;;103755;1292;544866;-74
2024/02/23 10:42:40;;;;;;;9.80;3.30;;;;;;;;;;103999;1289;545034;-76
2024/02/23 10:46:18;;;;;;;13.60;6.10;;;;;;;;;;103693;1291;545527;-75
2024/02/23 10:49:55;;;;;;;7.20;2.10;;;;;;;;;;103723;1292;545522;-73
2024/02/23 10:53:31;;;;;;;9.50;2.60;;;;;;;;;;103823;1292;544963;-76
2024/02/23 10:57:09;;;;;;;17.00;10.30;;;;;;;;;;103745;1292;545436;-74
2024/02/23 11:00:46;;;;;;;14.20;9.50;;;;;;;;;;103750;1291;544977;-75
2024/02/23 11:04:24;;;;;;;18.20;11.80;;;;;;;;;;103696;1295;545994;-75
2024/02/23 11:08:01;;;;;;;10.90;6.20;;;;;;;;;;103846;1292;544928;-75
2024/02/23 11:11:38;;;;;;;17.30;7.60;;;;;;;;;;103728;1291;545039;-75
2024/02/23 11:15:28;;;;;;;13.30;4.30;;;;;;;;;;103868;1291;545044;-73
2024/02/23 11:19:11;;;;;;;7.60;2.20;;;;;;;;;;103646;1291;545319;-73
2024/02/23 11:22:32;;;;;;;6.70;1.80;;;;;;;;;;103700;1292;545790;-74
2024/02/23 11:26:12;;;;;;;7.80;2.00;;;;;;;;;;103750;1290;544900;-73
2024/02/23 11:29:48;;;;;;;7.80;2.20;;;;;;;;;;103774;1292;544873;-74
2024/02/23 11:33:26;;;;;;;9.20;2.00;;;;;;;;;;103743;1291;544769;-73
2024/02/23 11:37:07;;;;;;;8.00;2.40;;;;;;;;;;103731;1292;545465;-73
2024/02/23 11:40:39;;;;;;;7.60;1.60;;;;;;;;;;103620;1291;545352;-73
2024/02/23 11:44:13;;;;;;;7.90;2.40;;;;;;;;;;103900;1292;544943;-74
2024/02/23 11:47:53;;;;;;;8.50;2.90;;;;;;;;;;103688;1290;544768;-73
2024/02/23 11:51:31;;;;;;;7.50;2.70;;;;;;;;;;103820;1288;545534;-73
2024/02/23 11:55:09;;;;;;;17.70;4.90;;;;;;;;;;103713;1291;544955;-73
2024/02/23 11:58:47;;;;;;;11.70;4.90;;;;;;;;;;103774;1289;545629;-72
2024/02/23 12:02:24;;;;;;;12.50;6.40;;;;;;;;;;103545;1293;545053;-72
2024/02/23 12:06:01;;;;;;;9.20;4.00;;;;;;;;;;103778;1292;544978;-75
2024/02/23 12:09:41;;;;;;;19.40;12.50;;;;;;;;;;103701;1292;544828;-75
2024/02/23 12:13:15;;;;;;;16.60;8.30;;;;;;;;;;103850;1289;545046;-73
2024/02/23 12:16:53;;;;;;;16.40;7.40;;;;;;;;;;103683;1300;544905;-71
2024/02/23 12:20:27;;;;;;;10.80;5.20;;;;;;;;;;103785;1289;545009;-74
2024/02/23 12:24:06;;;;;;;10.80;4.90;;;;;;;;;;103863;1291;544938;-75
2024/02/23 12:27:45;;;;;;;10.90;4.50;;;;;;;;;;103784;1291;544725;-73
2024/02/23 12:31:26;;;;;;;10.30;3.30;;;;;;;;;;103811;1294;544966;-74
2024/02/23 12:35:00;;;;;;;10.40;4.20;;;;;;;;;;103736;1291;545140;-72
2024/02/23 12:38:38;;;;;;;12.30;4.90;;;;;;;;;;104062;1300;545582;-73
2024/02/23 12:42:12;;;;;;;10.00;3.90;;;;;;;;;;103864;1289;544630;-71
2024/02/23 12:45:54;;;;;;;7.00;3.00;;;;;;;;;;103671;1291;545417;-73
2024/02/23 12:49:31;;;;;;;11.20;4.10;;;;;;;;;;103748;1292;544963;-72
2024/02/23 12:53:04;;;;;;;10.90;4.80;;;;;;;;;;103837;1289;545591;-73
2024/02/23 12:56:45;;;;;;;9.40;3.80;;;;;;;;;;103812;1290;544944;-72
2024/02/23 13:00:22;;;;;;;14.20;3.00;;;;;;;;;;103804;1288;545514;-73
2024/02/23 13:04:01;;;;;;;8.40;3.80;;;;;;;;;;103664;1292;545594;-72
2024/02/23 13:07:43;;;;;;;14.50;3.60;;;;;;;;;;103639;1290;548229;-73
2024/02/23 13:11:15;;;;;;;9.60;3.50;;;;;;;;;;103552;1292;545320;-73
2024/02/23 13:14:52;;;;;;;8.50;3.20;;;;;;;;;;103714;1292;545787;-72
2024/02/23 13:18:30;;;;;;;12.70;5.10;;;;;;;;;;103575;1291;546003;-71
2024/02/23 13:22:07;;;;;;;13.00;5.00;;;;;;;;;;103724;1291;544995;-71
2024/02/23 13:25:45;;;;;;;11.90;4.00;;;;;;;;;;103671;1292;545036;-73
2024/02/23 13:29:22;;;;;;;10.70;4.10;;;;;;;;;;103938;1289;545137;-72
2024/02/23 13:33:00;;;;;;;12.50;4.60;;;;;;;;;;103705;1294;544932;-73
2024/02/23 13:36:38;;;;;;;11.70;4.70;;;;;;;;;;103794;1289;545206;-72
2024/02/23 13:40:11;;;;;;;9.80;3.80;;;;;;;;;;103694;1291;544743;-74
2024/02/23 13:43:52;;;;;;;10.00;3.90;;;;;;;;;;103823;1289;545715;-71
2024/02/23 13:47:30;;;;;;;10.10;3.30;;;;;;;;;;103668;1297;544935;-72
2024/02/23 13:51:04;;;;;;;11.40;3.90;;;;;;;;;;103970;1292;544836;-72
2024/02/23 13:54:41;;;;;;;9.50;3.40;;;;;;;;;;103831;1295;545565;-72
2024/02/23 13:58:22;;;;;;;9.30;4.20;;;;;;;;;;103739;1291;546337;-72
2024/02/23 14:02:00;;;;;;;7.90;3.30;;;;;;;;;;103741;1291;544941;-72
2024/02/23 14:05:37;;;;;;;13.20;4.80;;;;;;;;;;103885;1289;544966;-72
2024/02/23 14:09:14;;;;;;;14.70;4.70;;;;;;;;;;103744;1291;545372;-72
2024/02/23 14:12:51;;;;;;;11.90;4.90;;;;;;;;;;103757;1290;544842;-72
2024/02/23 14:16:30;;;;;;;13.50;5.80;;;;;;;;;;103796;1297;544781;-71
2024/02/23 14:20:07;;;;;;;16.60;8.10;;;;;;;;;;103749;1293;544917;-72
2024/02/23 14:23:44;;;;;;;16.70;8.00;;;;;;;;;;103856;1289;545426;-72
2024/02/23 14:27:21;;;;;;;19.30;9.90;;;;;;;;;;103734;1292;544927;-72
2024/02/23 14:30:59;;;;;;;14.20;7.50;;;;;;;;;;103916;1291;545098;-72
2024/02/23 14:34:36;;;;;;;13.80;6.20;;;;;;;;;;103832;1292;545849;-72
2024/02/23 14:38:14;;;;;;;12.90;6.60;;;;;;;;;;104070;1286;545033;-72
2024/02/23 14:41:51;;;;;;;12.90;6.80;;;;;;;;;;103799;1290;545019;-71
2024/02/23 14:45:29;;;;;;;12.00;5.10;;;;;;;;;;103639;1294;545649;-72
2024/02/23 14:49:06;;;;;;;20.10;8.00;;;;;;;;;;103820;1289;545529;-73
2024/02/23 14:52:44;;;;;;;16.10;7.30;;;;;;;;;;103676;1295;544802;-71
2024/02/23 14:56:21;;;;;;;18.70;9.50;;;;;;;;;;103695;1292;544853;-72
2024/02/23 14:59:58;;;;;;;19.40;9.30;;;;;;;;;;103626;1297;545824;-74
2024/02/23 15:03:36;;;;;;;24.30;13.00;;;;;;;;;;103804;1294;544764;-71
2024/02/23 15:07:14;;;;;;;20.10;10.00;;;;;;;;;;103751;1291;544776;-74
2024/02/23 15:10:51;;;;;;;20.40;9.10;;;;;;;;;;103800;1289;544969;-73
2024/02/23 15:14:28;;;;;;;16.80;8.20;;;;;;;;;;103755;1295;544994;-72
2024/02/23 15:18:06;;;;;;;13.60;7.00;;;;;;;;;;103758;1289;545400;-72
2024/02/23 15:21:42;;;;;;;12.90;6.30;;;;;;;;;;103793;1288;544838;-73
2024/02/23 15:25:21;;;;;;;20.50;9.40;;;;;;;;;;103765;1292;544842;-73
2024/02/23 15:28:59;;;;;;;16.60;8.00;;;;;;;;;;103881;1289;545112;-72
2024/02/23 15:32:36;;;;;;;17.60;8.80;;;;;;;;;;103810;1295;545056;-73
2024/02/23 15:36:15;;;;;;;13.90;6.30;;;;;;;;;;103765;1291;545332;-73
2024/02/23 15:39:47;;;;;;;14.70;6.50;;;;;;;;;;104118;1288;545002;-73
2024/02/23 15:43:29;;;;;;;13.40;4.90;;;;;;;;;;103678;1294;544957;-72
2024/02/23 15:47:06;;;;;;;12.90;5.50;;;;;;;;;;103698;1293;545033;-72
2024/02/23 15:50:45;;;;;;;10.40;4.00;;;;;;;;;;103757;1290;545952;-74
2024/02/23 15:54:17;;;;;;;9.60;4.20;;;;;;;;;;103918;1295;544853;-72
2024/02/23 15:57:59;;;;;;;10.50;4.00;;;;;;;;;;103725;1292;545042;-72
2024/02/23 16:01:37;;;;;;;10.00;4.10;;;;;;;;;;103849;1292;545444;-73
2024/02/23 16:05:14;;;;;;;14.10;5.60;;;;;;;;;;104351;1283;545651;-72
2024/02/23 16:08:52;;;;;;;14.40;5.40;;;;;;;;;;103908;1289;545030;-74
2024/02/23 16:12:29;;;;;;;10.40;4.60;;;;;;;;;;103664;1295;545534;-73
2024/02/23 16:16:02;;;;;;;11.70;4.80;;;;;;;;;;103782;1291;544871;-72
2024/02/23 16:19:44;;;;;;;10.80;5.00;;;;;;;;;;103977;1285;544779;-73
2024/02/23 16:23:22;;;;;;;12.90;4.70;;;;;;;;;;103886;1292;544728;-72
2024/02/23 16:26:58;;;;;;;13.80;6.40;;;;;;;;;;103770;1293;545558;-72
2024/02/23 16:30:37;;;;;;;15.30;8.20;;;;;;;;;;104063;1294;544724;-74
2024/02/23 16:34:09;;;;;;;16.80;9.10;;;;;;;;;;103939;1288;545996;-72
2024/02/23 16:37:46;;;;;;;17.70;10.20;;;;;;;;;;103871;1289;545695;-71
2024/02/23 16:41:28;;;;;;;16.10;9.50;;;;;;;;;;103587;1291;545386;-72
2024/02/23 16:45:05;;;;;;;18.20;10.30;;;;;;;;;;103767;1288;545011;-73
2024/02/23 16:48:43;;;;;;;15.60;8.70;;;;;;;;;;103573;1292;544894;-72
2024/02/23 16:52:20;;;;;;;16.90;9.30;;;;;;;;;;103919;1289;545078;-72
2024/02/23 16:56:00;;;;;;;15.70;9.50;;;;;;;;;;103705;1291;545314;-72
2024/02/23 16:59:35;;;;;;;15.90;9.70;;;;;;;;;;103783;1291;545442;-72
2024/02/23 17:03:13;;;;;;;15.40;9.50;;;;;;;;;;103636;1291;545756;-72
2024/02/23 17:06:50;;;;;;;19.90;11.90;;;;;;;;;;103708;1292;544862;-72
2024/02/23 17:10:27;;;;;;;26.40;16.20;;;;;;;;;;103659;1292;545983;-73
2024/02/23 17:14:04;;;;;;;22.40;14.60;;;;;;;;;;104060;1289;544833;-72
2024/02/23 17:17:38;;;;;;;14.60;8.90;;;;;;;;;;104723;1282;545021;-73
2024/02/23 17:21:20;;;;;;;14.40;8.50;;;;;;;;;;103693;1292;545095;-72
2024/02/23 17:24:58;;;;;;;13.60;7.40;;;;;;;;;;104157;1286;544732;-72
2024/02/23 17:28:37;;;;;;;13.60;6.90;;;;;;;;;;103744;1292;544975;-72
2024/02/23 17:32:13;;;;;;;13.50;6.90;;;;;;;;;;103639;1292;544807;-72
2024/02/23 17:35:50;;;;;;;17.30;8.90;;;;;;;;;;103763;1292;545550;-72
2024/02/23 17:39:27;;;;;;;30.00;14.80;;;;;;;;;;105617;1291;545284;-72
2024/02/23 17:43:05;;;;;;;25.30;13.20;;;;;;;;;;103772;1293;545405;-72
2024/02/23 17:46:47;;;;;;;25.00;12.50;;;;;;;;;;103720;1297;545187;-73
2024/02/23 17:50:20;;;;;;;36.90;19.20;;;;;;;;;;103890;1289;545766;-71
2024/02/23 17:53:58;;;;;;;35.20;20.00;;;;;;;;;;104018;1292;545075;-74
2024/02/23 17:57:35;;;;;;;23.40;13.80;;;;;;;;;;103693;1291;545438;-72
2024/02/23 18:01:15;;;;;;;20.30;11.60;;;;;;;;;;103702;1291;545509;-74
2024/02/23 18:04:49;;;;;;;20.00;10.80;;;;;;;;;;103808;1292;545229;-72
2024/02/23 18:08:27;;;;;;;17.80;9.70;;;;;;;;;;104274;1286;545792;-73
2024/02/23 18:12:06;;;;;;;18.00;9.60;;;;;;;;;;103762;1289;544798;-73
2024/02/23 18:15:42;;;;;;;20.40;11.10;;;;;;;;;;103590;1295;545177;-73
2024/02/23 18:19:16;;;;;;;22.60;12.80;;;;;;;;;;103805;1292;545184;-73
2024/02/23 18:22:57;;;;;;;24.20;13.80;;;;;;;;;;103598;1292;544964;-74
2024/02/23 18:26:34;;;;;;;24.70;14.70;;;;;;;;;;103779;1289;545000;-72
2024/02/23 18:30:12;;;;;;;22.30;13.80;;;;;;;;;;103786;1292;544847;-73
2024/02/23 18:33:50;;;;;;;23.40;13.40;;;;;;;;;;103749;1292;545598;-72
2024/02/23 18:37:27;;;;;;;29.30;18.90;;;;;;;;;;103978;1292;544832;-72
2024/02/23 18:41:05;;;;;;;35.20;24.00;;;;;;;;;;103798;1289;545498;-73
2024/02/23 18:44:42;;;;;;;29.60;20.50;;;;;;;;;;103739;1295;545545;-73
2024/02/23 18:48:19;;;;;;;25.50;15.70;;;;;;;;;;103847;1292;545330;-73
2024/02/23 18:52:03;;;;;;;25.00;14.20;;;;;;;;;;103710;1292;545445;-73
2024/02/23 18:55:37;;;;;;;22.40;13.40;;;;;;;;;;103693;1295;545525;-72
2024/02/23 18:59:11;;;;;;;21.50;13.20;;;;;;;;;;103639;1292;544995;-72
2024/02/23 19:02:49;;;;;;;20.80;12.30;;;;;;;;;;103828;1292;545918;-71
2024/02/23 19:06:27;;;;;;;20.90;12.80;;;;;;;;;;103641;1291;544796;-71
2024/02/23 19:10:04;;;;;;;21.40;12.60;;;;;;;;;;103692;1292;545441;-71
2024/02/23 19:13:42;;;;;;;19.60;11.90;;;;;;;;;;103539;1295;545308;-72
2024/02/23 19:17:19;;;;;;;21.00;12.30;;;;;;;;;;103718;1291;545735;-72
2024/02/23 19:20:57;;;;;;;26.20;13.70;;;;;;;;;;103646;1292;544988;-71
2024/02/23 19:24:34;;;;;;;29.50;16.10;;;;;;;;;;103720;1291;545423;-72
2024/02/23 19:28:12;;;;;;;31.70;16.20;;;;;;;;;;103721;1294;545140;-71
2024/02/23 19:31:48;;;;;;;31.30;16.90;;;;;;;;;;103810;1292;546348;-71
2024/02/23 19:35:22;;;;;;;29.40;15.30;;;;;;;;;;103854;1292;545507;-69
2024/02/23 19:39:06;;;;;;;23.50;13.40;;;;;;;;;;103830;1292;544988;-71
2024/02/23 19:42:41;;;;;;;20.60;11.20;;;;;;;;;;103595;1291;544957;-72
2024/02/23 19:46:21;;;;;;;18.30;10.20;;;;;;;;;;103803;1292;545198;-72
2024/02/23 19:49:56;;;;;;;19.00;10.40;;;;;;;;;;104072;1289;544586;-71
2024/02/23 19:53:34;;;;;;;20.40;12.00;;;;;;;;;;103811;1292;545266;-72
2024/02/23 19:57:07;;;;;;;24.50;13.60;;;;;;;;;;103448;1304;545028;-70
2024/02/23 20:00:48;;;;;;;22.00;13.30;;;;;;;;;;103719;1291;545235;-71
2024/02/23 20:04:26;;;;;;;18.50;11.50;;;;;;;;;;103608;1293;545349;-71
2024/02/23 20:08:03;;;;;;;17.40;11.40;;;;;;;;;;103791;1292;544803;-71
2024/02/23 20:11:37;;;;;;;16.50;9.50;;;;;;;;;;103628;1289;545928;-71
2024/02/23 20:15:18;;;;;;;16.00;8.80;;;;;;;;;;103768;1292;546591;-72
2024/02/23 20:18:55;;;;;;;20.20;9.30;;;;;;;;;;103833;1289;544774;-71
2024/02/23 20:22:33;;;;;;;17.90;9.20;;;;;;;;;;103995;1289;545986;-71
2024/02/23 20:26:11;;;;;;;15.80;8.10;;;;;;;;;;103659;1292;544876;-71
2024/02/23 20:29:48;;;;;;;14.90;6.80;;;;;;;;;;103749;1293;545290;-71
2024/02/23 20:33:25;;;;;;;12.40;6.50;;;;;;;;;;103955;1289;544921;-70
2024/02/23 20:36:59;;;;;;;12.30;5.80;;;;;;;;;;104781;1282;545119;-70
2024/02/23 20:40:41;;;;;;;11.60;5.50;;;;;;;;;;103695;1296;545325;-70
2024/02/23 20:44:20;;;;;;;10.50;5.10;;;;;;;;;;103759;1292;545602;-70
2024/02/23 20:47:51;;;;;;;9.70;4.80;;;;;;;;;;103601;1302;545751;-71
2024/02/23 20:51:32;;;;;;;10.60;4.70;;;;;;;;;;103731;1292;544957;-70
2024/02/23 20:55:12;;;;;;;9.50;4.70;;;;;;;;;;103602;1295;545981;-71
2024/02/23 20:58:48;;;;;;;9.30;4.60;;;;;;;;;;103440;1295;545026;-70
2024/02/23 21:02:26;;;;;;;9.30;5.00;;;;;;;;;;103733;1293;544953;-71
2024/02/23 21:06:03;;;;;;;9.90;5.00;;;;;;;;;;103538;1292;544960;-71
2024/02/23 21:09:41;;;;;;;10.00;4.60;;;;;;;;;;103769;1292;544972;-70
2024/02/23 21:13:17;;;;;;;9.90;4.50;;;;;;;;;;103634;1292;545494;-70
2024/02/23 21:16:55;;;;;;;9.10;4.40;;;;;;;;;;103543;1295;545448;-70